sensor_id;sensor_type;location;lat;lon;timestamp;P1;durP1;ratioP1;P2;durP2;ratioP2
59364;SDS011;45161;51.448;-2.570;2022-07-01T00:00:47;8.55;;;3.05;;
59364;SDS011;45161;51.448;-2.570;2022-07-01T00:03:12;9.43;;;2.50;;
59364;SDS011;45161;51.448;-2.570;2022-07-01T00:05:38;4.50;;;2.40;;
59364;SDS011;45161;51.448;-2.570;2022-07-01T00:08:04;3.97;;;2.50;;
59364;SDS011;45161;51.448;-2.570;2022-07-01T00:10:30;7.35;;;2.55;;
59364;SDS011;45161;51.448;-2.570;2022-07-01T00:12:56;9.13;;;2.90;;
59364;SDS011;45161;51.448;-2.570;2022-07-01T00:15:22;4.97;;;1.92;;
59364;SDS011;45161;51.448;-2.570;2022-07-01T00:17:48;6.88;;;2.47;;
59364;SDS011;45161;51.448;-2.570;2022-07-01T00:20:14;4.90;;;2.20;;
59364;SDS011;45161;51.448;-2.570;2022-07-01T00:22:40;6.25;;;2.45;;
59364;SDS011;45161;51.448;-2.570;2022-07-01T00:25:06;7.43;;;2.33;;
59364;SDS011;45161;51.448;-2.570;2022-07-01T00:27:33;7.00;;;2.42;;
59364;SDS011;45161;51.448;-2.570;2022-07-01T00:30:01;6.43;;;2.30;;
59364;SDS011;45161;51.448;-2.570;2022-07-01T00:32:27;4.68;;;1.90;;
59364;SDS011;45161;51.448;-2.570;2022-07-01T00:34:53;4.50;;;2.17;;
59364;SDS011;45161;51.448;-2.570;2022-07-01T00:37:18;6.13;;;2.05;;
59364;SDS011;45161;51.448;-2.570;2022-07-01T00:39:44;10.57;;;2.60;;
59364;SDS011;45161;51.448;-2.570;2022-07-01T00:42:10;5.95;;;2.53;;
59364;SDS011;45161;51.448;-2.570;2022-07-01T00:44:35;7.22;;;2.28;;
59364;SDS011;45161;51.448;-2.570;2022-07-01T00:47:02;4.22;;;1.95;;
59364;SDS011;45161;51.448;-2.570;2022-07-01T00:49:32;6.87;;;2.37;;
59364;SDS011;45161;51.448;-2.570;2022-07-01T00:51:58;7.57;;;2.25;;
59364;SDS011;45161;51.448;-2.570;2022-07-01T00:54:24;7.70;;;2.80;;
59364;SDS011;45161;51.448;-2.570;2022-07-01T00:56:51;7.55;;;2.40;;
59364;SDS011;45161;51.448;-2.570;2022-07-01T00:59:17;6.57;;;2.20;;
59364;SDS011;45161;51.448;-2.570;2022-07-01T01:01:42;5.20;;;2.40;;
59364;SDS011;45161;51.448;-2.570;2022-07-01T01:04:08;4.25;;;2.03;;
59364;SDS011;45161;51.448;-2.570;2022-07-01T01:06:34;7.72;;;2.50;;
59364;SDS011;45161;51.448;-2.570;2022-07-01T01:09:02;6.05;;;2.58;;
59364;SDS011;45161;51.448;-2.570;2022-07-01T01:11:28;6.95;;;2.92;;
59364;SDS011;45161;51.448;-2.570;2022-07-01T01:13:55;5.78;;;2.55;;
59364;SDS011;45161;51.448;-2.570;2022-07-01T01:16:21;7.20;;;3.22;;
59364;SDS011;45161;51.448;-2.570;2022-07-01T01:18:48;5.50;;;2.50;;
59364;SDS011;45161;51.448;-2.570;2022-07-01T01:21:14;5.95;;;2.95;;
59364;SDS011;45161;51.448;-2.570;2022-07-01T01:23:41;7.80;;;3.03;;
59364;SDS011;45161;51.448;-2.570;2022-07-01T01:26:14;4.47;;;2.83;;
59364;SDS011;45161;51.448;-2.570;2022-07-01T01:28:41;7.85;;;3.00;;
59364;SDS011;45161;51.448;-2.570;2022-07-01T01:31:07;8.00;;;2.70;;
59364;SDS011;45161;51.448;-2.570;2022-07-01T01:33:32;13.23;;;2.80;;
59364;SDS011;45161;51.448;-2.570;2022-07-01T01:35:58;8.80;;;2.88;;
59364;SDS011;45161;51.448;-2.570;2022-07-01T01:38:24;7.35;;;2.47;;
59364;SDS011;45161;51.448;-2.570;2022-07-01T01:40:49;5.75;;;2.70;;
59364;SDS011;45161;51.448;-2.570;2022-07-01T01:43:15;6.65;;;2.72;;
59364;SDS011;45161;51.448;-2.570;2022-07-01T01:45:41;7.50;;;2.80;;
59364;SDS011;45161;51.448;-2.570;2022-07-01T01:48:06;6.40;;;2.75;;
59364;SDS011;45161;51.448;-2.570;2022-07-01T01:50:32;8.23;;;2.95;;
59364;SDS011;45161;51.448;-2.570;2022-07-01T01:52:58;7.50;;;3.05;;
59364;SDS011;45161;51.448;-2.570;2022-07-01T01:55:23;8.38;;;3.00;;
59364;SDS011;45161;51.448;-2.570;2022-07-01T01:57:49;12.38;;;3.03;;
59364;SDS011;45161;51.448;-2.570;2022-07-01T02:00:15;11.73;;;3.05;;
59364;SDS011;45161;51.448;-2.570;2022-07-01T02:02:41;10.10;;;2.90;;
59364;SDS011;45161;51.448;-2.570;2022-07-01T02:05:08;8.23;;;2.63;;
59364;SDS011;45161;51.448;-2.570;2022-07-01T02:07:35;11.93;;;3.55;;
59364;SDS011;45161;51.448;-2.570;2022-07-01T02:10:01;7.43;;;2.80;;
59364;SDS011;45161;51.448;-2.570;2022-07-01T02:12:28;4.97;;;2.63;;
59364;SDS011;45161;51.448;-2.570;2022-07-01T02:14:53;6.40;;;2.60;;
59364;SDS011;45161;51.448;-2.570;2022-07-01T02:17:19;6.93;;;2.80;;
59364;SDS011;45161;51.448;-2.570;2022-07-01T02:19:45;5.70;;;2.20;;
59364;SDS011;45161;51.448;-2.570;2022-07-01T02:22:10;4.78;;;2.30;;
59364;SDS011;45161;51.448;-2.570;2022-07-01T02:24:36;5.57;;;2.45;;
59364;SDS011;45161;51.448;-2.570;2022-07-01T02:27:02;9.27;;;2.90;;
59364;SDS011;45161;51.448;-2.570;2022-07-01T02:29:28;8.18;;;2.80;;
59364;SDS011;45161;51.448;-2.570;2022-07-01T02:31:53;7.47;;;2.90;;
59364;SDS011;45161;51.448;-2.570;2022-07-01T02:34:19;5.72;;;2.60;;
59364;SDS011;45161;51.448;-2.570;2022-07-01T02:36:45;8.05;;;2.63;;
59364;SDS011;45161;51.448;-2.570;2022-07-01T02:39:11;7.55;;;2.90;;
59364;SDS011;45161;51.448;-2.570;2022-07-01T02:41:36;10.95;;;2.63;;
59364;SDS011;45161;51.448;-2.570;2022-07-01T02:44:22;9.75;;;2.47;;
59364;SDS011;45161;51.448;-2.570;2022-07-01T02:46:48;9.18;;;2.75;;
59364;SDS011;45161;51.448;-2.570;2022-07-01T02:49:13;6.40;;;2.20;;
59364;SDS011;45161;51.448;-2.570;2022-07-01T02:51:40;8.57;;;2.42;;
59364;SDS011;45161;51.448;-2.570;2022-07-01T02:54:05;9.35;;;3.03;;
59364;SDS011;45161;51.448;-2.570;2022-07-01T02:56:31;6.07;;;2.80;;
59364;SDS011;45161;51.448;-2.570;2022-07-01T02:58:57;9.13;;;4.88;;
59364;SDS011;45161;51.448;-2.570;2022-07-01T03:01:22;4.57;;;2.47;;
59364;SDS011;45161;51.448;-2.570;2022-07-01T03:03:48;6.43;;;2.78;;
59364;SDS011;45161;51.448;-2.570;2022-07-01T03:06:15;6.45;;;2.40;;
59364;SDS011;45161;51.448;-2.570;2022-07-01T03:08:41;5.07;;;3.17;;
59364;SDS011;45161;51.448;-2.570;2022-07-01T03:11:06;9.18;;;2.92;;
59364;SDS011;45161;51.448;-2.570;2022-07-01T03:13:32;5.38;;;2.78;;
59364;SDS011;45161;51.448;-2.570;2022-07-01T03:15:58;9.75;;;3.03;;
59364;SDS011;45161;51.448;-2.570;2022-07-01T03:18:23;8.05;;;3.42;;
59364;SDS011;45161;51.448;-2.570;2022-07-01T03:20:49;7.15;;;3.03;;
59364;SDS011;45161;51.448;-2.570;2022-07-01T03:23:16;7.03;;;2.92;;
59364;SDS011;45161;51.448;-2.570;2022-07-01T03:25:42;7.50;;;2.80;;
59364;SDS011;45161;51.448;-2.570;2022-07-01T03:28:07;9.43;;;3.22;;
59364;SDS011;45161;51.448;-2.570;2022-07-01T03:30:33;8.88;;;3.15;;
59364;SDS011;45161;51.448;-2.570;2022-07-01T03:32:59;7.75;;;3.20;;
59364;SDS011;45161;51.448;-2.570;2022-07-01T03:35:25;8.27;;;4.07;;
59364;SDS011;45161;51.448;-2.570;2022-07-01T03:38:10;6.70;;;3.85;;
59364;SDS011;45161;51.448;-2.570;2022-07-01T03:40:36;13.05;;;3.88;;
59364;SDS011;45161;51.448;-2.570;2022-07-01T03:43:02;7.88;;;3.67;;
59364;SDS011;45161;51.448;-2.570;2022-07-01T03:45:28;8.48;;;3.60;;
59364;SDS011;45161;51.448;-2.570;2022-07-01T03:47:54;7.28;;;3.75;;
59364;SDS011;45161;51.448;-2.570;2022-07-01T03:50:20;9.80;;;4.13;;
59364;SDS011;45161;51.448;-2.570;2022-07-01T03:52:47;11.32;;;4.72;;
59364;SDS011;45161;51.448;-2.570;2022-07-01T03:55:13;7.78;;;4.35;;
59364;SDS011;45161;51.448;-2.570;2022-07-01T03:57:39;12.93;;;4.90;;
59364;SDS011;45161;51.448;-2.570;2022-07-01T04:00:05;10.55;;;5.30;;
59364;SDS011;45161;51.448;-2.570;2022-07-01T04:02:33;10.93;;;5.28;;
59364;SDS011;45161;51.448;-2.570;2022-07-01T04:04:58;17.17;;;5.28;;
59364;SDS011;45161;51.448;-2.570;2022-07-01T04:07:24;12.90;;;5.10;;
59364;SDS011;45161;51.448;-2.570;2022-07-01T04:09:51;12.90;;;6.00;;
59364;SDS011;45161;51.448;-2.570;2022-07-01T04:12:17;11.40;;;5.60;;
59364;SDS011;45161;51.448;-2.570;2022-07-01T04:14:43;12.18;;;5.32;;
59364;SDS011;45161;51.448;-2.570;2022-07-01T04:17:09;11.80;;;5.78;;
59364;SDS011;45161;51.448;-2.570;2022-07-01T04:19:35;10.38;;;5.85;;
59364;SDS011;45161;51.448;-2.570;2022-07-01T04:22:01;13.30;;;5.45;;
59364;SDS011;45161;51.448;-2.570;2022-07-01T04:24:47;12.07;;;5.90;;
59364;SDS011;45161;51.448;-2.570;2022-07-01T04:27:13;34.90;;;7.45;;
59364;SDS011;45161;51.448;-2.570;2022-07-01T04:29:39;27.40;;;6.32;;
59364;SDS011;45161;51.448;-2.570;2022-07-01T04:32:05;27.55;;;7.35;;
59364;SDS011;45161;51.448;-2.570;2022-07-01T04:34:31;34.88;;;7.35;;
59364;SDS011;45161;51.448;-2.570;2022-07-01T04:36:56;20.23;;;6.47;;
59364;SDS011;45161;51.448;-2.570;2022-07-01T04:39:22;20.08;;;6.65;;
59364;SDS011;45161;51.448;-2.570;2022-07-01T04:41:48;14.07;;;5.10;;
59364;SDS011;45161;51.448;-2.570;2022-07-01T04:44:30;13.13;;;7.10;;
59364;SDS011;45161;51.448;-2.570;2022-07-01T04:46:57;14.30;;;7.25;;
59364;SDS011;45161;51.448;-2.570;2022-07-01T04:49:23;12.23;;;5.35;;
59364;SDS011;45161;51.448;-2.570;2022-07-01T04:51:49;10.13;;;5.35;;
59364;SDS011;45161;51.448;-2.570;2022-07-01T04:54:15;12.18;;;3.80;;
59364;SDS011;45161;51.448;-2.570;2022-07-01T04:56:41;7.53;;;3.95;;
59364;SDS011;45161;51.448;-2.570;2022-07-01T04:59:06;10.57;;;3.35;;
59364;SDS011;45161;51.448;-2.570;2022-07-01T05:01:32;8.32;;;2.90;;
59364;SDS011;45161;51.448;-2.570;2022-07-01T05:03:59;9.57;;;2.80;;
59364;SDS011;45161;51.448;-2.570;2022-07-01T05:06:25;5.63;;;2.50;;
59364;SDS011;45161;51.448;-2.570;2022-07-01T05:08:52;9.60;;;2.80;;
59364;SDS011;45161;51.448;-2.570;2022-07-01T05:11:17;3.03;;;1.98;;
59364;SDS011;45161;51.448;-2.570;2022-07-01T05:13:43;9.02;;;2.58;;
59364;SDS011;45161;51.448;-2.570;2022-07-01T05:16:09;8.57;;;1.77;;
59364;SDS011;45161;51.448;-2.570;2022-07-01T05:18:36;6.25;;;1.63;;
59364;SDS011;45161;51.448;-2.570;2022-07-01T05:21:22;4.38;;;1.80;;
59364;SDS011;45161;51.448;-2.570;2022-07-01T05:24:08;4.28;;;1.70;;
59364;SDS011;45161;51.448;-2.570;2022-07-01T05:26:34;6.35;;;1.40;;
59364;SDS011;45161;51.448;-2.570;2022-07-01T05:29:00;5.60;;;1.98;;
59364;SDS011;45161;51.448;-2.570;2022-07-01T05:31:26;6.65;;;1.77;;
59364;SDS011;45161;51.448;-2.570;2022-07-01T05:33:51;7.18;;;1.95;;
59364;SDS011;45161;51.448;-2.570;2022-07-01T05:36:17;7.00;;;2.15;;
59364;SDS011;45161;51.448;-2.570;2022-07-01T05:38:43;6.28;;;1.70;;
59364;SDS011;45161;51.448;-2.570;2022-07-01T05:41:09;8.75;;;1.98;;
59364;SDS011;45161;51.448;-2.570;2022-07-01T05:43:34;9.68;;;2.03;;
59364;SDS011;45161;51.448;-2.570;2022-07-01T05:46:00;4.95;;;2.17;;
59364;SDS011;45161;51.448;-2.570;2022-07-01T05:48:26;6.28;;;1.42;;
59364;SDS011;45161;51.448;-2.570;2022-07-01T05:50:52;7.32;;;1.50;;
59364;SDS011;45161;51.448;-2.570;2022-07-01T05:53:18;6.00;;;1.45;;
59364;SDS011;45161;51.448;-2.570;2022-07-01T05:55:44;5.70;;;1.70;;
59364;SDS011;45161;51.448;-2.570;2022-07-01T05:58:11;9.43;;;2.22;;
59364;SDS011;45161;51.448;-2.570;2022-07-01T06:00:38;6.20;;;2.05;;
59364;SDS011;45161;51.448;-2.570;2022-07-01T06:03:06;7.72;;;2.20;;
59364;SDS011;45161;51.448;-2.570;2022-07-01T06:05:34;6.78;;;1.70;;
59364;SDS011;45161;51.448;-2.570;2022-07-01T06:08:00;3.25;;;1.40;;
59364;SDS011;45161;51.448;-2.570;2022-07-01T06:10:25;4.57;;;1.50;;
59364;SDS011;45161;51.448;-2.570;2022-07-01T06:12:51;4.75;;;1.17;;
59364;SDS011;45161;51.448;-2.570;2022-07-01T06:15:17;8.18;;;1.50;;
59364;SDS011;45161;51.448;-2.570;2022-07-01T06:17:43;2.92;;;1.27;;
59364;SDS011;45161;51.448;-2.570;2022-07-01T06:20:08;3.75;;;1.20;;
59364;SDS011;45161;51.448;-2.570;2022-07-01T06:22:34;7.32;;;1.23;;
59364;SDS011;45161;51.448;-2.570;2022-07-01T06:25:00;6.60;;;1.30;;
59364;SDS011;45161;51.448;-2.570;2022-07-01T06:27:27;1.17;;;0.90;;
59364;SDS011;45161;51.448;-2.570;2022-07-01T06:29:53;8.38;;;1.67;;
59364;SDS011;45161;51.448;-2.570;2022-07-01T06:32:19;5.63;;;1.17;;
59364;SDS011;45161;51.448;-2.570;2022-07-01T06:34:45;3.92;;;1.15;;
59364;SDS011;45161;51.448;-2.570;2022-07-01T06:37:11;1.98;;;1.15;;
59364;SDS011;45161;51.448;-2.570;2022-07-01T06:39:37;5.05;;;1.60;;
59364;SDS011;45161;51.448;-2.570;2022-07-01T06:42:02;4.63;;;1.40;;
59364;SDS011;45161;51.448;-2.570;2022-07-01T06:44:28;5.15;;;1.42;;
59364;SDS011;45161;51.448;-2.570;2022-07-01T06:46:54;4.53;;;1.40;;
59364;SDS011;45161;51.448;-2.570;2022-07-01T06:49:20;4.65;;;1.48;;
59364;SDS011;45161;51.448;-2.570;2022-07-01T06:51:45;10.30;;;1.88;;
59364;SDS011;45161;51.448;-2.570;2022-07-01T06:54:11;3.58;;;1.38;;
59364;SDS011;45161;51.448;-2.570;2022-07-01T06:56:37;6.82;;;1.50;;
59364;SDS011;45161;51.448;-2.570;2022-07-01T06:59:02;5.40;;;1.73;;
59364;SDS011;45161;51.448;-2.570;2022-07-01T07:01:28;7.00;;;1.70;;
59364;SDS011;45161;51.448;-2.570;2022-07-01T07:03:54;3.88;;;1.80;;
59364;SDS011;45161;51.448;-2.570;2022-07-01T07:06:20;6.50;;;1.65;;
59364;SDS011;45161;51.448;-2.570;2022-07-01T07:08:46;9.10;;;1.88;;
59364;SDS011;45161;51.448;-2.570;2022-07-01T07:11:12;7.38;;;1.77;;
59364;SDS011;45161;51.448;-2.570;2022-07-01T07:13:39;10.25;;;1.77;;
59364;SDS011;45161;51.448;-2.570;2022-07-01T07:16:05;9.00;;;1.98;;
59364;SDS011;45161;51.448;-2.570;2022-07-01T07:18:31;6.78;;;1.90;;
59364;SDS011;45161;51.448;-2.570;2022-07-01T07:20:57;8.60;;;1.63;;
59364;SDS011;45161;51.448;-2.570;2022-07-01T07:23:23;8.32;;;1.98;;
59364;SDS011;45161;51.448;-2.570;2022-07-01T07:25:48;10.98;;;1.88;;
59364;SDS011;45161;51.448;-2.570;2022-07-01T07:28:14;10.55;;;1.95;;
59364;SDS011;45161;51.448;-2.570;2022-07-01T07:30:40;14.02;;;3.80;;
59364;SDS011;45161;51.448;-2.570;2022-07-01T07:33:05;15.57;;;2.03;;
59364;SDS011;45161;51.448;-2.570;2022-07-01T07:35:31;7.13;;;1.58;;
59364;SDS011;45161;51.448;-2.570;2022-07-01T07:37:57;6.28;;;1.50;;
59364;SDS011;45161;51.448;-2.570;2022-07-01T07:40:22;7.88;;;1.33;;
59364;SDS011;45161;51.448;-2.570;2022-07-01T07:42:52;10.57;;;1.70;;
59364;SDS011;45161;51.448;-2.570;2022-07-01T07:45:18;6.07;;;1.48;;
59364;SDS011;45161;51.448;-2.570;2022-07-01T07:47:45;10.45;;;1.65;;
59364;SDS011;45161;51.448;-2.570;2022-07-01T07:50:13;4.53;;;1.67;;
59364;SDS011;45161;51.448;-2.570;2022-07-01T07:52:39;11.35;;;1.70;;
59364;SDS011;45161;51.448;-2.570;2022-07-01T07:55:07;10.40;;;1.65;;
59364;SDS011;45161;51.448;-2.570;2022-07-01T07:57:35;11.60;;;1.83;;
59364;SDS011;45161;51.448;-2.570;2022-07-01T08:00:04;11.60;;;2.00;;
59364;SDS011;45161;51.448;-2.570;2022-07-01T08:02:31;12.05;;;1.60;;
59364;SDS011;45161;51.448;-2.570;2022-07-01T08:04:57;7.05;;;1.48;;
59364;SDS011;45161;51.448;-2.570;2022-07-01T08:07:22;9.00;;;2.42;;
59364;SDS011;45161;51.448;-2.570;2022-07-01T08:09:48;14.07;;;2.22;;
59364;SDS011;45161;51.448;-2.570;2022-07-01T08:12:14;11.20;;;1.88;;
59364;SDS011;45161;51.448;-2.570;2022-07-01T08:14:40;11.88;;;1.90;;
59364;SDS011;45161;51.448;-2.570;2022-07-01T08:17:06;9.45;;;1.70;;
59364;SDS011;45161;51.448;-2.570;2022-07-01T08:19:33;11.60;;;1.80;;
59364;SDS011;45161;51.448;-2.570;2022-07-01T08:21:58;11.40;;;1.60;;
59364;SDS011;45161;51.448;-2.570;2022-07-01T08:24:24;14.82;;;2.28;;
59364;SDS011;45161;51.448;-2.570;2022-07-01T08:26:50;7.45;;;1.50;;
59364;SDS011;45161;51.448;-2.570;2022-07-01T08:29:15;14.55;;;1.67;;
59364;SDS011;45161;51.448;-2.570;2022-07-01T08:31:41;6.55;;;1.20;;
59364;SDS011;45161;51.448;-2.570;2022-07-01T08:34:07;9.95;;;1.90;;
59364;SDS011;45161;51.448;-2.570;2022-07-01T08:36:34;15.27;;;1.77;;
59364;SDS011;45161;51.448;-2.570;2022-07-01T08:39:00;7.45;;;1.30;;
59364;SDS011;45161;51.448;-2.570;2022-07-01T08:41:26;7.97;;;1.30;;
59364;SDS011;45161;51.448;-2.570;2022-07-01T08:43:51;7.70;;;1.70;;
59364;SDS011;45161;51.448;-2.570;2022-07-01T08:46:17;6.85;;;1.40;;
59364;SDS011;45161;51.448;-2.570;2022-07-01T08:48:43;11.10;;;1.30;;
59364;SDS011;45161;51.448;-2.570;2022-07-01T08:51:10;15.85;;;1.45;;
59364;SDS011;45161;51.448;-2.570;2022-07-01T08:53:36;9.52;;;1.10;;
59364;SDS011;45161;51.448;-2.570;2022-07-01T08:56:02;14.18;;;2.05;;
59364;SDS011;45161;51.448;-2.570;2022-07-01T08:58:48;10.52;;;2.47;;
59364;SDS011;45161;51.448;-2.570;2022-07-01T09:01:17;10.15;;;1.35;;
59364;SDS011;45161;51.448;-2.570;2022-07-01T09:03:46;14.00;;;1.45;;
59364;SDS011;45161;51.448;-2.570;2022-07-01T09:06:17;10.98;;;1.30;;
59364;SDS011;45161;51.448;-2.570;2022-07-01T09:08:45;8.52;;;1.40;;
59364;SDS011;45161;51.448;-2.570;2022-07-01T09:11:13;7.50;;;1.30;;
59364;SDS011;45161;51.448;-2.570;2022-07-01T09:13:42;7.90;;;1.52;;
59364;SDS011;45161;51.448;-2.570;2022-07-01T09:16:13;7.10;;;1.23;;
59364;SDS011;45161;51.448;-2.570;2022-07-01T09:21:27;4.32;;;0.90;;
59364;SDS011;45161;51.448;-2.570;2022-07-01T09:23:54;9.48;;;1.48;;
59364;SDS011;45161;51.448;-2.570;2022-07-01T09:26:20;7.00;;;1.52;;
59364;SDS011;45161;51.448;-2.570;2022-07-01T09:28:54;7.60;;;1.48;;
59364;SDS011;45161;51.448;-2.570;2022-07-01T09:31:22;5.70;;;1.35;;
59364;SDS011;45161;51.448;-2.570;2022-07-01T09:34:02;12.13;;;1.88;;
59364;SDS011;45161;51.448;-2.570;2022-07-01T09:36:29;8.23;;;1.27;;
59364;SDS011;45161;51.448;-2.570;2022-07-01T09:38:55;6.45;;;0.88;;
59364;SDS011;45161;51.448;-2.570;2022-07-01T09:41:22;3.50;;;0.80;;
59364;SDS011;45161;51.448;-2.570;2022-07-01T09:43:49;28.50;;;2.63;;
59364;SDS011;45161;51.448;-2.570;2022-07-01T09:46:15;6.03;;;0.88;;
59364;SDS011;45161;51.448;-2.570;2022-07-01T09:48:41;5.85;;;0.90;;
59364;SDS011;45161;51.448;-2.570;2022-07-01T09:51:10;6.47;;;0.93;;
59364;SDS011;45161;51.448;-2.570;2022-07-01T09:53:37;6.13;;;0.80;;
59364;SDS011;45161;51.448;-2.570;2022-07-01T09:56:04;6.13;;;1.23;;
59364;SDS011;45161;51.448;-2.570;2022-07-01T09:58:30;5.90;;;0.60;;
59364;SDS011;45161;51.448;-2.570;2022-07-01T10:01:03;5.93;;;1.02;;
59364;SDS011;45161;51.448;-2.570;2022-07-01T10:03:30;8.52;;;1.48;;
59364;SDS011;45161;51.448;-2.570;2022-07-01T10:06:03;6.18;;;0.73;;
59364;SDS011;45161;51.448;-2.570;2022-07-01T10:08:58;4.03;;;0.85;;
59364;SDS011;45161;51.448;-2.570;2022-07-01T10:14:39;9.23;;;1.13;;
59364;SDS011;45161;51.448;-2.570;2022-07-01T10:17:07;6.07;;;0.60;;
59364;SDS011;45161;51.448;-2.570;2022-07-01T10:19:33;8.70;;;1.17;;
59364;SDS011;45161;51.448;-2.570;2022-07-01T10:22:00;8.85;;;1.10;;
59364;SDS011;45161;51.448;-2.570;2022-07-01T10:24:46;5.20;;;1.17;;
59364;SDS011;45161;51.448;-2.570;2022-07-01T10:27:19;5.28;;;0.90;;
59364;SDS011;45161;51.448;-2.570;2022-07-01T10:29:47;5.93;;;0.70;;
59364;SDS011;45161;51.448;-2.570;2022-07-01T10:32:29;7.40;;;1.13;;
59364;SDS011;45161;51.448;-2.570;2022-07-01T10:35:03;3.33;;;0.82;;
59364;SDS011;45161;51.448;-2.570;2022-07-01T10:37:31;5.85;;;1.05;;
59364;SDS011;45161;51.448;-2.570;2022-07-01T10:39:59;4.10;;;0.82;;
59364;SDS011;45161;51.448;-2.570;2022-07-01T10:42:27;19.60;;;2.83;;
59364;SDS011;45161;51.448;-2.570;2022-07-01T10:45:10;4.75;;;0.88;;
59364;SDS011;45161;51.448;-2.570;2022-07-01T10:50:04;2.55;;;0.80;;
59364;SDS011;45161;51.448;-2.570;2022-07-01T10:52:32;3.08;;;0.90;;
59364;SDS011;45161;51.448;-2.570;2022-07-01T10:54:59;3.55;;;0.80;;
59364;SDS011;45161;51.448;-2.570;2022-07-01T10:57:27;3.38;;;0.85;;
59364;SDS011;45161;51.448;-2.570;2022-07-01T10:59:56;6.57;;;0.80;;
59364;SDS011;45161;51.448;-2.570;2022-07-01T11:02:54;6.38;;;1.02;;
59364;SDS011;45161;51.448;-2.570;2022-07-01T11:05:20;3.47;;;1.10;;
59364;SDS011;45161;51.448;-2.570;2022-07-01T11:07:47;6.43;;;0.85;;
59364;SDS011;45161;51.448;-2.570;2022-07-01T11:10:14;3.90;;;0.60;;
59364;SDS011;45161;51.448;-2.570;2022-07-01T11:12:41;3.08;;;0.73;;
59364;SDS011;45161;51.448;-2.570;2022-07-01T11:15:09;3.65;;;0.57;;
59364;SDS011;45161;51.448;-2.570;2022-07-01T11:17:36;3.47;;;1.02;;
59364;SDS011;45161;51.448;-2.570;2022-07-01T11:20:09;8.20;;;0.90;;
59364;SDS011;45161;51.448;-2.570;2022-07-01T11:22:35;2.65;;;0.52;;
59364;SDS011;45161;51.448;-2.570;2022-07-01T11:25:02;6.78;;;0.90;;
59364;SDS011;45161;51.448;-2.570;2022-07-01T11:27:32;13.88;;;1.50;;
59364;SDS011;45161;51.448;-2.570;2022-07-01T11:30:00;5.45;;;1.90;;
59364;SDS011;45161;51.448;-2.570;2022-07-01T11:32:31;2.85;;;1.00;;
59364;SDS011;45161;51.448;-2.570;2022-07-01T11:34:59;7.10;;;0.90;;
59364;SDS011;45161;51.448;-2.570;2022-07-01T11:37:27;4.43;;;0.70;;
59364;SDS011;45161;51.448;-2.570;2022-07-01T11:40:15;7.05;;;0.90;;
59364;SDS011;45161;51.448;-2.570;2022-07-01T11:42:42;3.97;;;0.70;;
59364;SDS011;45161;51.448;-2.570;2022-07-01T11:45:09;6.10;;;0.88;;
59364;SDS011;45161;51.448;-2.570;2022-07-01T11:47:49;4.53;;;0.73;;
59364;SDS011;45161;51.448;-2.570;2022-07-01T11:50:15;1.92;;;0.40;;
59364;SDS011;45161;51.448;-2.570;2022-07-01T11:52:41;3.17;;;0.70;;
59364;SDS011;45161;51.448;-2.570;2022-07-01T11:55:07;11.60;;;1.00;;
59364;SDS011;45161;51.448;-2.570;2022-07-01T11:57:33;5.93;;;0.85;;
59364;SDS011;45161;51.448;-2.570;2022-07-01T12:00:07;4.47;;;0.50;;
59364;SDS011;45161;51.448;-2.570;2022-07-01T12:02:34;3.67;;;0.95;;
59364;SDS011;45161;51.448;-2.570;2022-07-01T12:05:00;3.85;;;0.60;;
59364;SDS011;45161;51.448;-2.570;2022-07-01T12:07:27;5.75;;;0.90;;
59364;SDS011;45161;51.448;-2.570;2022-07-01T12:09:53;6.47;;;1.00;;
59364;SDS011;45161;51.448;-2.570;2022-07-01T12:12:20;6.90;;;0.85;;
59364;SDS011;45161;51.448;-2.570;2022-07-01T12:14:52;6.82;;;0.80;;
59364;SDS011;45161;51.448;-2.570;2022-07-01T12:17:19;2.95;;;0.60;;
59364;SDS011;45161;51.448;-2.570;2022-07-01T12:19:46;4.55;;;0.98;;
59364;SDS011;45161;51.448;-2.570;2022-07-01T12:22:14;3.13;;;0.90;;
59364;SDS011;45161;51.448;-2.570;2022-07-01T12:24:44;7.93;;;1.00;;
59364;SDS011;45161;51.448;-2.570;2022-07-01T12:27:11;8.73;;;1.17;;
59364;SDS011;45161;51.448;-2.570;2022-07-01T12:29:53;6.65;;;0.85;;
59364;SDS011;45161;51.448;-2.570;2022-07-01T12:32:20;7.13;;;0.80;;
59364;SDS011;45161;51.448;-2.570;2022-07-01T12:34:54;3.40;;;0.90;;
59364;SDS011;45161;51.448;-2.570;2022-07-01T12:37:26;7.50;;;1.35;;
59364;SDS011;45161;51.448;-2.570;2022-07-01T12:39:56;2.58;;;0.43;;
59364;SDS011;45161;51.448;-2.570;2022-07-01T12:42:38;0.88;;;0.30;;
59364;SDS011;45161;51.448;-2.570;2022-07-01T12:45:09;4.30;;;0.75;;
59364;SDS011;45161;51.448;-2.570;2022-07-01T12:47:38;2.50;;;0.70;;
59364;SDS011;45161;51.448;-2.570;2022-07-01T12:50:22;5.72;;;0.70;;
59364;SDS011;45161;51.448;-2.570;2022-07-01T12:52:58;2.42;;;0.40;;
59364;SDS011;45161;51.448;-2.570;2022-07-01T12:55:32;6.53;;;0.80;;
59364;SDS011;45161;51.448;-2.570;2022-07-01T12:58:07;7.05;;;0.60;;
59364;SDS011;45161;51.448;-2.570;2022-07-01T13:00:35;0.82;;;0.30;;
59364;SDS011;45161;51.448;-2.570;2022-07-01T13:03:02;4.95;;;0.38;;
59364;SDS011;45161;51.448;-2.570;2022-07-01T13:05:29;3.65;;;0.52;;
59364;SDS011;45161;51.448;-2.570;2022-07-01T13:07:56;2.85;;;0.40;;
59364;SDS011;45161;51.448;-2.570;2022-07-01T13:10:22;3.85;;;0.70;;
59364;SDS011;45161;51.448;-2.570;2022-07-01T13:12:47;0.75;;;0.20;;
59364;SDS011;45161;51.448;-2.570;2022-07-01T13:15:14;2.45;;;0.20;;
59364;SDS011;45161;51.448;-2.570;2022-07-01T13:17:41;2.17;;;0.30;;
59364;SDS011;45161;51.448;-2.570;2022-07-01T13:20:08;4.65;;;0.30;;
59364;SDS011;45161;51.448;-2.570;2022-07-01T13:22:35;3.30;;;0.30;;
59364;SDS011;45161;51.448;-2.570;2022-07-01T13:25:02;2.20;;;0.20;;
59364;SDS011;45161;51.448;-2.570;2022-07-01T13:27:29;0.47;;;0.15;;
59364;SDS011;45161;51.448;-2.570;2022-07-01T13:29:55;0.85;;;0.20;;
59364;SDS011;45161;51.448;-2.570;2022-07-01T13:32:21;0.63;;;0.30;;
59364;SDS011;45161;51.448;-2.570;2022-07-01T13:34:47;0.70;;;0.40;;
59364;SDS011;45161;51.448;-2.570;2022-07-01T13:37:13;1.27;;;0.30;;
59364;SDS011;45161;51.448;-2.570;2022-07-01T13:39:39;1.83;;;0.50;;
59364;SDS011;45161;51.448;-2.570;2022-07-01T13:42:04;2.45;;;0.30;;
59364;SDS011;45161;51.448;-2.570;2022-07-01T13:44:30;1.48;;;0.20;;
59364;SDS011;45161;51.448;-2.570;2022-07-01T13:46:56;1.35;;;0.30;;
59364;SDS011;45161;51.448;-2.570;2022-07-01T13:49:22;2.00;;;0.22;;
59364;SDS011;45161;51.448;-2.570;2022-07-01T13:51:48;0.43;;;0.40;;
59364;SDS011;45161;51.448;-2.570;2022-07-01T13:54:13;2.33;;;0.40;;
59364;SDS011;45161;51.448;-2.570;2022-07-01T13:56:39;1.38;;;0.30;;
59364;SDS011;45161;51.448;-2.570;2022-07-01T13:59:06;1.35;;;0.50;;
59364;SDS011;45161;51.448;-2.570;2022-07-01T14:01:33;0.95;;;0.38;;
59364;SDS011;45161;51.448;-2.570;2022-07-01T14:04:00;0.95;;;0.30;;
59364;SDS011;45161;51.448;-2.570;2022-07-01T14:06:26;0.70;;;0.30;;
59364;SDS011;45161;51.448;-2.570;2022-07-01T14:08:51;1.88;;;0.38;;
59364;SDS011;45161;51.448;-2.570;2022-07-01T14:11:17;1.25;;;0.40;;
59364;SDS011;45161;51.448;-2.570;2022-07-01T14:13:43;1.67;;;0.40;;
59364;SDS011;45161;51.448;-2.570;2022-07-01T14:16:09;1.67;;;0.30;;
59364;SDS011;45161;51.448;-2.570;2022-07-01T14:18:35;3.35;;;0.30;;
59364;SDS011;45161;51.448;-2.570;2022-07-01T14:21:01;0.40;;;0.25;;
59364;SDS011;45161;51.448;-2.570;2022-07-01T14:23:29;1.58;;;0.73;;
59364;SDS011;45161;51.448;-2.570;2022-07-01T14:25:56;2.17;;;0.60;;
59364;SDS011;45161;51.448;-2.570;2022-07-01T14:28:22;2.40;;;0.75;;
59364;SDS011;45161;51.448;-2.570;2022-07-01T14:30:47;2.70;;;0.57;;
59364;SDS011;45161;51.448;-2.570;2022-07-01T14:33:14;0.88;;;0.40;;
59364;SDS011;45161;51.448;-2.570;2022-07-01T14:35:40;2.47;;;0.40;;
59364;SDS011;45161;51.448;-2.570;2022-07-01T14:38:06;3.90;;;0.75;;
59364;SDS011;45161;51.448;-2.570;2022-07-01T14:40:32;1.45;;;0.30;;